Time;durP1;ratioP1;P1;durP2;ratioP2;P2;SDS_P1;SDS_P2;PMS_P1;PMS_P2;Temp;Humidity;BMP_temperature;BMP_pressure;BME280_temperature;BME280_humidity;BME280_pressure;Samples;Min_cycle;Max_cycle;Signal;HPM_P1;HPM_P2
2023/12/10 00:01:05;;;;;;;21.70;12.90;;;;;;;-0.34;83.65;95344.11;106497;1277;25311;-76
2023/12/10 00:03:51;;;;;;;18.10;11.10;;;;;;;-0.25;83.54;95343.06;106492;1277;25251;-76
2023/12/10 00:06:20;;;;;;;20.50;12.20;;;;;;;-0.26;82.83;95332.16;106466;1277;22670;-77
2023/12/10 00:08:48;;;;;;;20.40;12.10;;;;;;;-0.27;82.87;95329.21;106479;1277;26675;-76
2023/12/10 00:11:16;;;;;;;19.50;11.40;;;;;;;-0.27;82.62;95319.02;106510;1277;22598;-76
2023/12/10 00:13:44;;;;;;;22.80;12.40;;;;;;;-0.24;82.80;95316.11;106462;1271;24221;-76
2023/12/10 00:16:14;;;;;;;19.30;11.90;;;;;;;-0.17;83.04;95318.48;106510;1277;24260;-77
2023/12/10 00:18:43;;;;;;;20.90;11.70;;;;;;;-0.15;82.42;95316.46;106542;1277;22628;-76
2023/12/10 00:21:14;;;;;;;17.70;11.50;;;;;;;-0.12;82.38;95311.66;106437;1277;22551;-77
2023/12/10 00:23:43;;;;;;;19.90;11.00;;;;;;;-0.12;82.19;95312.71;106497;1277;24287;-76
2023/12/10 00:26:11;;;;;;;20.10;11.30;;;;;;;-0.13;82.17;95310.27;106529;1277;22524;-76
2023/12/10 00:28:39;;;;;;;20.80;12.00;;;;;;;-0.13;82.15;95304.91;106487;1277;22537;-77
2023/12/10 00:31:09;;;;;;;20.00;12.20;;;;;;;-0.18;82.12;95304.48;106213;1277;22523;-76
2023/12/10 00:33:37;;;;;;;17.30;11.10;;;;;;;-0.19;82.18;95300.65;106562;1277;26522;-76
2023/12/10 00:36:07;;;;;;;19.90;11.70;;;;;;;-0.19;82.25;95304.80;106476;1277;22535;-76
2023/12/10 00:38:38;;;;;;;21.70;11.00;;;;;;;-0.19;82.45;95303.92;106507;1277;24236;-76
2023/12/10 00:41:10;;;;;;;20.80;11.00;;;;;;;-0.22;82.11;95306.83;106514;1277;25427;-76
2023/12/10 00:43:40;;;;;;;18.90;11.10;;;;;;;-0.22;82.21;95310.11;106361;1277;24420;-77
2023/12/10 00:46:09;;;;;;;19.60;11.10;;;;;;;-0.24;82.01;95309.56;106477;1277;22539;-76
2023/12/10 00:48:37;;;;;;;19.50;11.00;;;;;;;-0.28;81.78;95306.38;106649;1255;23225;-76
2023/12/10 00:51:06;;;;;;;19.20;11.60;;;;;;;-0.34;81.97;95302.82;106599;1277;22659;-76
2023/12/10 00:53:35;;;;;;;19.60;11.30;;;;;;;-0.39;82.10;95299.26;106695;1277;25525;-76
2023/12/10 00:56:03;;;;;;;19.60;11.50;;;;;;;-0.44;82.46;95302.45;106444;1277;22546;-76
2023/12/10 00:58:31;;;;;;;15.90;10.10;;;;;;;-0.49;82.48;95301.99;106473;1277;22526;-76
2023/12/10 01:00:59;;;;;;;22.70;11.00;;;;;;;-0.55;82.80;95302.25;106518;1277;22521;-76
2023/12/10 01:03:27;;;;;;;19.60;10.80;;;;;;;-0.57;82.86;95300.98;106444;1277;22598;-76
2023/12/10 01:05:56;;;;;;;20.60;11.00;;;;;;;-0.60;82.89;95304.92;106495;1277;25455;-76
2023/12/10 01:08:24;;;;;;;20.20;11.00;;;;;;;-0.62;83.16;95306.27;106410;1277;25308;-76
2023/12/10 01:10:52;;;;;;;17.80;10.80;;;;;;;-0.62;83.17;95311.79;106460;1277;22529;-77
2023/12/10 01:13:24;;;;;;;21.90;11.70;;;;;;;-0.63;83.21;95311.42;106475;1277;22527;-76
2023/12/10 01:15:55;;;;;;;21.00;11.50;;;;;;;-0.64;82.98;95312.77;106490;1277;22521;-77
2023/12/10 01:18:24;;;;;;;20.20;11.40;;;;;;;-0.65;83.08;95315.36;106498;1277;25375;-77
2023/12/10 01:20:53;;;;;;;19.70;10.40;;;;;;;-0.67;82.95;95314.46;106489;1267;23136;-77
2023/12/10 01:23:21;;;;;;;19.00;10.60;;;;;;;-0.67;82.80;95321.52;106505;1277;25501;-77
2023/12/10 01:25:49;;;;;;;20.90;11.50;;;;;;;-0.67;82.97;95319.11;106449;1277;24054;-77
2023/12/10 01:28:17;;;;;;;18.90;11.20;;;;;;;-0.68;82.92;95313.22;106460;1277;22713;-76
2023/12/10 01:30:46;;;;;;;18.50;10.50;;;;;;;-0.71;82.87;95312.64;106512;1277;23917;-76
2023/12/10 01:33:14;;;;;;;24.60;11.80;;;;;;;-0.72;82.72;95305.88;106476;1277;24349;-76
2023/12/10 01:35:43;;;;;;;24.20;12.20;;;;;;;-0.73;82.62;95306.39;106516;1277;24436;-76
2023/12/10 01:38:11;;;;;;;27.40;13.30;;;;;;;-0.70;82.55;95303.15;106447;1277;24241;-76
2023/12/10 01:40:39;;;;;;;23.30;12.60;;;;;;;-0.69;82.76;95297.48;106483;1277;22526;-77
2023/12/10 01:43:11;;;;;;;21.90;12.10;;;;;;;-0.62;83.13;95295.89;106503;1277;25912;-77
2023/12/10 01:45:40;;;;;;;23.00;12.80;;;;;;;-0.53;83.47;95297.44;106505;1277;24363;-77
2023/12/10 01:48:08;;;;;;;21.30;12.00;;;;;;;-0.48;83.25;95301.68;106385;1277;23879;-76
2023/12/10 01:50:38;;;;;;;21.10;12.20;;;;;;;-0.39;83.48;95299.42;106512;1277;22584;-77
2023/12/10 01:53:08;;;;;;;19.30;12.00;;;;;;;-0.31;83.35;95294.58;106461;1267;23880;-77
2023/12/10 01:55:36;;;;;;;20.90;11.60;;;;;;;-0.21;83.06;95298.05;106464;1277;22532;-77
2023/12/10 01:58:04;;;;;;;15.80;9.90;;;;;;;-0.17;82.64;95295.16;106536;1277;24390;-76
2023/12/10 02:00:33;;;;;;;21.10;10.90;;;;;;;-0.07;83.01;95293.59;106472;1277;23950;-77
2023/12/10 02:03:03;;;;;;;20.50;11.70;;;;;;;-0.03;82.54;95291.60;106472;1277;25432;-76
2023/12/10 02:05:32;;;;;;;18.00;11.00;;;;;;;0.03;82.16;95294.30;106564;1277;25321;-77
2023/12/10 02:08:00;;;;;;;19.50;10.80;;;;;;;0.06;81.87;95287.27;106464;1277;22531;-77
2023/12/10 02:10:29;;;;;;;18.20;10.80;;;;;;;0.04;81.40;95285.13;106564;1276;25511;-77
2023/12/10 02:12:57;;;;;;;17.70;11.20;;;;;;;0.04;81.79;95285.83;106432;1277;22546;-76
2023/12/10 02:15:29;;;;;;;17.00;10.20;;;;;;;0.03;81.54;95281.69;106450;1277;24286;-76
2023/12/10 02:17:58;;;;;;;17.30;10.60;;;;;;;0.02;81.27;95278.19;106495;1277;24508;-77
2023/12/10 02:20:26;;;;;;;20.00;11.00;;;;;;;0.02;81.42;95282.86;106507;1277;25569;-76
2023/12/10 02:23:04;;;;;;;17.40;10.70;;;;;;;0.02;81.29;95283.22;106430;1277;24651;-76
2023/12/10 02:25:38;;;;;;;18.80;10.60;;;;;;;-0.02;81.38;95282.28;106534;1254;25489;-76
2023/12/10 02:28:09;;;;;;;16.50;10.50;;;;;;;-0.06;81.01;95285.33;106447;1277;22545;-76
2023/12/10 02:30:37;;;;;;;17.00;10.50;;;;;;;-0.11;81.10;95288.52;106520;1277;22516;-77
2023/12/10 02:33:06;;;;;;;18.00;10.10;;;;;;;-0.16;81.55;95291.55;106498;1276;22586;-76
2023/12/10 02:35:34;;;;;;;18.40;10.50;;;;;;;-0.17;81.70;95290.31;106468;1277;22529;-77
2023/12/10 02:38:04;;;;;;;16.50;10.10;;;;;;;-0.19;81.41;95294.08;106461;1277;24430;-76
2023/12/10 02:40:32;;;;;;;15.20;8.90;;;;;;;-0.24;81.39;95291.92;106471;1277;24373;-76
2023/12/10 02:43:01;;;;;;;17.30;10.80;;;;;;;-0.33;81.48;95288.48;106471;1266;24412;-77
2023/12/10 02:45:29;;;;;;;19.20;9.70;;;;;;;-0.37;81.72;95284.95;106430;1277;24223;-76
2023/12/10 02:47:57;;;;;;;16.10;10.30;;;;;;;-0.42;81.74;95284.33;106624;1276;25712;-77
2023/12/10 02:50:26;;;;;;;19.20;10.60;;;;;;;-0.44;81.93;95278.77;106571;1273;22526;-76
2023/12/10 02:52:54;;;;;;;17.90;10.20;;;;;;;-0.45;82.02;95274.79;106591;1277;24280;-76
2023/12/10 02:55:22;;;;;;;16.90;9.80;;;;;;;-0.50;82.00;95278.67;106411;1277;22527;-77
2023/12/10 02:57:51;;;;;;;14.90;10.00;;;;;;;-0.55;82.21;95279.62;106611;1277;22530;-77
2023/12/10 03:00:19;;;;;;;16.10;10.20;;;;;;;-0.57;82.12;95282.00;106782;1277;22516;-77
2023/12/10 03:02:47;;;;;;;18.20;10.60;;;;;;;-0.59;82.15;95284.21;106245;1277;22534;-77
2023/12/10 03:05:16;;;;;;;17.50;10.40;;;;;;;-0.62;82.26;95281.54;106409;1277;22668;-76
2023/12/10 03:07:44;;;;;;;16.30;8.90;;;;;;;-0.68;82.35;95281.95;106525;1277;25730;-76
2023/12/10 03:10:12;;;;;;;17.80;9.60;;;;;;;-0.75;82.64;95282.14;106435;1277;24237;-76
2023/12/10 03:12:41;;;;;;;17.90;10.60;;;;;;;-0.80;82.43;95276.02;106460;1277;23917;-77
2023/12/10 03:15:09;;;;;;;17.10;9.20;;;;;;;-0.82;82.69;95276.66;106471;1277;24297;-76
2023/12/10 03:17:37;;;;;;;16.90;10.50;;;;;;;-0.84;82.84;95278.02;106347;1277;24245;-76
2023/12/10 03:20:09;;;;;;;17.40;10.10;;;;;;;-0.87;82.89;95278.30;106434;1277;24233;-76
2023/12/10 03:22:37;;;;;;;18.00;10.50;;;;;;;-0.89;82.93;95278.09;106431;1277;22664;-76
2023/12/10 03:25:06;;;;;;;15.90;9.60;;;;;;;-0.91;83.10;95277.35;106387;1277;25435;-76
2023/12/10 03:27:35;;;;;;;17.40;10.50;;;;;;;-0.92;83.16;95275.62;106459;1277;22646;-76
2023/12/10 03:30:04;;;;;;;16.10;9.50;;;;;;;-0.93;83.03;95259.36;106504;1277;22662;-77
2023/12/10 03:32:32;;;;;;;17.10;9.50;;;;;;;-0.93;83.29;95254.17;106424;1277;22785;-76
2023/12/10 03:35:00;;;;;;;15.90;10.20;;;;;;;-0.93;83.33;95251.42;106757;1277;24226;-77
2023/12/10 03:37:28;;;;;;;17.30;10.10;;;;;;;-0.96;83.51;95251.70;106431;1277;23897;-76
2023/12/10 03:39:57;;;;;;;20.40;10.10;;;;;;;-1.00;83.52;95251.79;106435;1277;25578;-76
2023/12/10 03:42:25;;;;;;;20.20;11.00;;;;;;;-1.00;83.49;95245.57;106502;1266;25257;-76
2023/12/10 03:44:56;;;;;;;18.80;10.80;;;;;;;-1.01;83.60;95243.48;106759;1277;22597;-76
2023/12/10 03:47:24;;;;;;;22.70;12.30;;;;;;;-1.04;83.64;95235.98;106375;1277;22540;-76
2023/12/10 03:49:52;;;;;;;19.70;11.20;;;;;;;-1.04;83.58;95233.76;106520;1277;22560;-76
2023/12/10 03:52:21;;;;;;;21.70;11.60;;;;;;;-1.04;83.64;95227.02;106391;1277;22539;-76
2023/12/10 03:54:49;;;;;;;19.80;11.10;;;;;;;-1.01;83.95;95224.84;106419;1258;22530;-77
2023/12/10 03:57:17;;;;;;;17.70;10.30;;;;;;;-0.98;84.09;95218.86;106483;1277;22530;-76
2023/12/10 03:59:45;;;;;;;19.30;10.40;;;;;;;-0.96;84.04;95222.01;106457;1271;24223;-76
2023/12/10 04:02:14;;;;;;;19.80;10.80;;;;;;;-0.93;84.05;95223.27;106455;1277;25628;-77
2023/12/10 04:04:42;;;;;;;16.90;9.50;;;;;;;-0.89;84.03;95228.90;106457;1277;22519;-76
2023/12/10 04:07:10;;;;;;;17.50;9.80;;;;;;;-0.83;84.13;95230.89;106405;1277;24372;-76
2023/12/10 04:09:38;;;;;;;17.20;9.80;;;;;;;-0.77;83.97;95227.55;106440;1277;22527;-77
2023/12/10 04:12:07;;;;;;;15.10;8.90;;;;;;;-0.71;83.92;95220.75;106487;1277;24231;-77
2023/12/10 04:14:35;;;;;;;19.00;10.60;;;;;;;-0.66;83.67;95216.34;106575;1277;22527;-76
2023/12/10 04:17:04;;;;;;;16.30;9.70;;;;;;;-0.66;83.45;95209.64;106618;1277;22522;-77
2023/12/10 04:19:32;;;;;;;16.60;9.20;;;;;;;-0.62;83.35;95207.95;106411;1277;24414;-77
2023/12/10 04:22:00;;;;;;;16.70;9.90;;;;;;;-0.61;83.26;95209.88;106433;1277;24244;-76
2023/12/10 04:24:29;;;;;;;16.00;9.20;;;;;;;-0.60;82.90;95207.84;106376;1277;24414;-76
2023/12/10 04:26:57;;;;;;;17.40;10.00;;;;;;;-0.55;83.35;95207.40;106655;1277;25616;-76
2023/12/10 04:29:25;;;;;;;14.00;8.40;;;;;;;-0.48;83.12;95207.34;106507;1277;24433;-77
2023/12/10 04:31:54;;;;;;;15.10;8.60;;;;;;;-0.43;82.85;95214.34;106416;1267;22543;-77
2023/12/10 04:34:22;;;;;;;16.30;8.60;;;;;;;-0.42;82.26;95225.07;106416;1277;22798;-76
2023/12/10 04:36:51;;;;;;;13.90;8.70;;;;;;;-0.47;81.85;95223.77;106484;1277;25321;-76
2023/12/10 04:39:19;;;;;;;14.50;8.50;;;;;;;-0.47;82.25;95217.39;106529;1277;22588;-76
2023/12/10 04:41:48;;;;;;;15.20;9.10;;;;;;;-0.46;81.95;95209.80;106429;1277;22546;-76
2023/12/10 04:44:16;;;;;;;18.10;9.40;;;;;;;-0.48;82.10;95210.81;106261;1277;233557;-77
2023/12/10 04:46:44;;;;;;;16.10;9.10;;;;;;;-0.52;81.76;95206.93;106442;1277;22536;-76
2023/12/10 04:49:12;;;;;;;15.80;9.00;;;;;;;-0.59;81.81;95195.75;106648;1277;22533;-76
2023/12/10 04:51:41;;;;;;;16.00;9.30;;;;;;;-0.60;82.07;95195.05;106441;1277;22526;-76
2023/12/10 04:54:09;;;;;;;16.20;9.10;;;;;;;-0.63;82.00;95196.38;106800;1277;24907;-77
2023/12/10 04:56:37;;;;;;;14.50;8.20;;;;;;;-0.66;82.08;95204.96;106723;1277;25340;-77
2023/12/10 04:59:06;;;;;;;19.20;9.90;;;;;;;-0.73;82.02;95216.92;106823;1277;22943;-76
2023/12/10 05:01:34;;;;;;;23.60;12.20;;;;;;;-0.85;81.90;95222.03;106642;1277;22546;-77
2023/12/10 05:04:03;;;;;;;21.20;11.80;;;;;;;-0.96;82.02;95227.54;106393;1277;25329;-76
2023/12/10 05:06:32;;;;;;;33.00;15.00;;;;;;;-1.03;81.97;95225.33;106771;1277;25355;-77
2023/12/10 05:09:03;;;;;;;19.00;9.90;;;;;;;-1.07;82.19;95221.10;106463;1277;24318;-77
2023/12/10 05:11:31;;;;;;;15.10;8.10;;;;;;;-1.07;81.99;95223.67;106492;1277;22652;-77
2023/12/10 05:13:59;;;;;;;18.80;9.20;;;;;;;-1.12;81.99;95228.42;106438;1277;22577;-77
2023/12/10 05:16:28;;;;;;;22.90;11.30;;;;;;;-1.10;82.23;95237.79;106415;1277;24350;-77
2023/12/10 05:18:56;;;;;;;16.90;8.80;;;;;;;-1.09;81.95;95230.73;106419;1277;22551;-77
2023/12/10 05:21:25;;;;;;;24.20;12.80;;;;;;;-1.11;82.09;95227.41;106588;1277;22542;-77
2023/12/10 05:23:53;;;;;;;22.90;12.90;;;;;;;-1.14;82.56;95228.73;106526;1277;25423;-76
2023/12/10 05:26:21;;;;;;;22.10;12.00;;;;;;;-1.12;82.99;95229.30;106412;1277;22524;-77
2023/12/10 05:28:50;;;;;;;28.50;14.50;;;;;;;-1.05;82.96;95236.68;106644;1277;24536;-77
2023/12/10 05:31:18;;;;;;;27.10;15.10;;;;;;;-0.98;83.00;95240.09;106686;1277;22524;-77
2023/12/10 05:33:46;;;;;;;30.30;14.60;;;;;;;-0.89;83.01;95239.58;106409;1277;22525;-76
2023/12/10 05:36:15;;;;;;;19.20;10.90;;;;;;;-0.80;82.94;95240.77;106723;1277;22752;-77
2023/12/10 05:38:44;;;;;;;21.00;10.40;;;;;;;-0.73;82.58;95242.30;106458;1277;25340;-77
2023/12/10 05:41:12;;;;;;;18.10;9.30;;;;;;;-0.64;82.86;95242.30;106512;1277;22666;-77
2023/12/10 05:43:40;;;;;;;17.80;9.30;;;;;;;-0.51;82.83;95243.05;106550;1277;22583;-77
2023/12/10 05:46:09;;;;;;;15.90;8.80;;;;;;;-0.41;81.82;95245.64;106444;1277;25429;-77
2023/12/10 05:48:37;;;;;;;17.70;9.80;;;;;;;-0.45;81.33;95242.11;106453;1277;24203;-76
2023/12/10 05:51:06;;;;;;;18.20;9.50;;;;;;;-0.39;81.99;95241.70;106512;1277;22512;-76
2023/12/10 05:53:34;;;;;;;17.10;9.20;;;;;;;-0.35;81.49;95241.08;106422;1277;25423;-76
2023/12/10 05:56:03;;;;;;;21.80;10.30;;;;;;;-0.38;80.95;95238.61;106525;1277;22527;-76
2023/12/10 05:58:31;;;;;;;18.40;10.40;;;;;;;-0.42;81.05;95238.20;106453;1277;22569;-77
2023/12/10 06:00:59;;;;;;;15.90;9.30;;;;;;;-0.41;81.27;95234.59;106441;1266;25239;-77
2023/12/10 06:03:28;;;;;;;17.10;9.70;;;;;;;-0.41;81.06;95233.55;106524;1274;22544;-77
2023/12/10 06:05:56;;;;;;;18.60;10.20;;;;;;;-0.47;80.95;95230.34;106438;1277;22529;-77
2023/12/10 06:08:25;;;;;;;17.30;9.20;;;;;;;-0.51;81.18;95230.45;106379;1277;23906;-77
2023/12/10 06:10:54;;;;;;;17.90;10.00;;;;;;;-0.53;81.23;95237.67;106413;1277;22648;-76
2023/12/10 06:13:22;;;;;;;15.60;8.90;;;;;;;-0.54;81.30;95239.20;106756;1277;24257;-77
2023/12/10 06:15:51;;;;;;;17.00;9.60;;;;;;;-0.60;81.19;95243.23;106645;1277;22640;-77
2023/12/10 06:18:19;;;;;;;18.10;9.30;;;;;;;-0.64;81.31;95245.92;106369;1277;24214;-77
2023/12/10 06:20:48;;;;;;;17.10;10.00;;;;;;;-0.69;81.56;95250.17;106434;1277;25378;-76
2023/12/10 06:23:16;;;;;;;19.40;9.60;;;;;;;-0.68;81.76;95258.97;106505;1277;22988;-76
2023/12/10 06:25:44;;;;;;;18.40;10.60;;;;;;;-0.68;81.60;95266.05;106499;1277;25257;-77
2023/12/10 06:28:12;;;;;;;17.50;10.10;;;;;;;-0.70;81.62;95271.38;106750;1277;22516;-77
2023/12/10 06:30:41;;;;;;;18.10;10.10;;;;;;;-0.74;81.49;95270.95;106764;1261;22603;-76
2023/12/10 06:33:09;;;;;;;18.30;10.00;;;;;;;-0.80;81.78;95269.63;106518;1277;22650;-76
2023/12/10 06:35:37;;;;;;;17.40;9.60;;;;;;;-0.84;81.78;95263.66;106531;1277;22605;-76
2023/12/10 06:38:05;;;;;;;17.50;9.50;;;;;;;-0.89;81.91;95262.02;106546;1277;22533;-77
2023/12/10 06:40:34;;;;;;;18.50;10.00;;;;;;;-0.95;82.18;95256.73;106662;1277;22961;-77
2023/12/10 06:43:02;;;;;;;17.40;9.80;;;;;;;-0.97;82.42;95258.41;106410;1277;22661;-77
2023/12/10 06:45:30;;;;;;;19.10;10.70;;;;;;;-0.99;82.30;95258.55;106722;1277;22775;-77
2023/12/10 06:47:59;;;;;;;18.00;9.50;;;;;;;-1.00;82.39;95258.52;106419;1277;22641;-77
2023/12/10 06:50:30;;;;;;;14.60;7.90;;;;;;;-1.01;82.49;95253.67;106482;1277;22961;-77
2023/12/10 06:52:58;;;;;;;19.70;9.90;;;;;;;-1.02;82.54;95257.96;106510;1277;22526;-76
2023/12/10 06:55:27;;;;;;;16.60;9.30;;;;;;;-1.03;82.63;95251.05;106441;1277;26546;-77
2023/12/10 06:57:55;;;;;;;17.30;9.00;;;;;;;-1.01;82.77;95245.05;106421;1277;24272;-76
2023/12/10 07:00:24;;;;;;;16.40;9.40;;;;;;;-0.97;82.68;95241.84;106483;1277;22807;-76
2023/12/10 07:02:55;;;;;;;18.50;10.10;;;;;;;-0.91;82.64;95244.38;106441;1255;22592;-77
2023/12/10 07:05:23;;;;;;;19.60;11.60;;;;;;;-0.89;82.53;95239.77;106557;1277;25454;-76
2023/12/10 07:07:52;;;;;;;19.10;10.80;;;;;;;-0.95;82.46;95231.86;106634;1277;24281;-76
2023/12/10 07:10:20;;;;;;;25.40;13.80;;;;;;;-1.03;82.56;95236.18;106605;1277;25442;-76
2023/12/10 07:12:53;;;;;;;24.50;14.60;;;;;;;-1.09;82.63;95231.75;106599;1277;25312;-76
2023/12/10 07:15:21;;;;;;;22.70;12.20;;;;;;;-1.15;82.73;95230.27;106411;1277;25985;-76
2023/12/10 07:17:49;;;;;;;24.40;12.30;;;;;;;-1.16;83.00;95227.32;106390;1277;24206;-76
2023/12/10 07:20:18;;;;;;;22.90;11.00;;;;;;;-1.19;83.10;95226.22;106574;1276;22538;-76
2023/12/10 07:22:46;;;;;;;21.00;10.20;;;;;;;-1.19;82.97;95229.48;106433;1277;22638;-77
2023/12/10 07:25:14;;;;;;;19.00;10.40;;;;;;;-1.14;83.16;95223.38;106701;1277;25507;-77
2023/12/10 07:27:43;;;;;;;18.70;9.90;;;;;;;-1.05;83.29;95220.09;106492;1277;22545;-76
2023/12/10 07:30:11;;;;;;;17.60;9.30;;;;;;;-0.95;83.30;95213.23;106471;1256;25363;-76
2023/12/10 07:32:40;;;;;;;19.40;11.00;;;;;;;-0.85;83.00;95214.10;106437;1277;26614;-76
2023/12/10 07:35:08;;;;;;;18.70;10.30;;;;;;;-0.79;82.71;95213.88;106460;1274;23908;-76
2023/12/10 07:37:36;;;;;;;17.80;10.30;;;;;;;-0.75;82.07;95214.11;106441;1277;23901;-77
2023/12/10 07:40:05;;;;;;;19.10;9.80;;;;;;;-0.68;82.18;95219.76;106422;1277;25351;-77
2023/12/10 07:42:33;;;;;;;20.50;9.90;;;;;;;-0.60;82.05;95222.15;106335;1277;22556;-76
2023/12/10 07:45:03;;;;;;;18.70;10.30;;;;;;;-0.55;81.85;95223.64;106463;1277;22484;-76
2023/12/10 07:47:31;;;;;;;17.40;10.20;;;;;;;-0.47;81.59;95223.43;106591;1277;22522;-77
2023/12/10 07:49:59;;;;;;;20.20;10.90;;;;;;;-0.39;81.47;95217.34;106634;1277;22547;-77
2023/12/10 07:52:27;;;;;;;20.90;10.70;;;;;;;-0.35;80.77;95215.51;106458;1265;22989;-77
2023/12/10 07:54:56;;;;;;;24.60;12.70;;;;;;;-0.31;81.37;95213.35;106732;1277;24414;-76
2023/12/10 07:57:24;;;;;;;21.00;10.80;;;;;;;-0.20;81.15;95209.55;106432;1277;23139;-76
2023/12/10 07:59:53;;;;;;;20.50;11.30;;;;;;;-0.17;79.82;95202.86;106398;1277;22650;-76
2023/12/10 08:02:21;;;;;;;20.50;11.10;;;;;;;-0.12;80.54;95198.96;106599;1277;25692;-76
2023/12/10 08:04:49;;;;;;;23.60;11.80;;;;;;;-0.10;79.85;95202.96;106733;1277;22669;-77
2023/12/10 08:07:18;;;;;;;22.20;10.70;;;;;;;-0.16;79.45;95209.95;106503;1277;25415;-76
2023/12/10 08:09:46;;;;;;;18.40;9.90;;;;;;;-0.19;79.61;95206.11;106473;1277;22525;-77
2023/12/10 08:12:14;;;;;;;19.90;10.30;;;;;;;-0.25;79.55;95209.64;106564;1277;22543;-76
2023/12/10 08:14:43;;;;;;;22.20;11.10;;;;;;;-0.23;79.95;95219.35;106525;1277;25362;-76
2023/12/10 08:17:11;;;;;;;17.70;9.40;;;;;;;-0.19;79.94;95222.00;106604;1277;22674;-76
2023/12/10 08:19:40;;;;;;;18.60;10.30;;;;;;;-0.25;79.23;95224.34;106476;1277;23015;-76
2023/12/10 08:22:08;;;;;;;18.30;10.10;;;;;;;-0.30;79.44;95233.77;106750;1274;22539;-77
2023/12/10 08:24:36;;;;;;;16.10;9.20;;;;;;;-0.29;79.85;95231.36;106518;1277;25320;-76
2023/12/10 08:27:05;;;;;;;17.10;9.40;;;;;;;-0.27;80.01;95234.33;106406;1277;22516;-76
2023/12/10 08:29:33;;;;;;;19.40;10.40;;;;;;;-0.24;79.99;95236.79;106526;1277;24407;-76
2023/12/10 08:32:01;;;;;;;17.10;9.80;;;;;;;-0.25;79.82;95235.05;106746;1277;24226;-77
2023/12/10 08:34:30;;;;;;;20.40;10.50;;;;;;;-0.26;79.99;95246.60;106675;1277;22527;-76
2023/12/10 08:36:58;;;;;;;15.70;9.10;;;;;;;-0.26;80.19;95248.69;106537;1277;24230;-76
2023/12/10 08:39:26;;;;;;;19.80;9.10;;;;;;;-0.27;80.23;95255.41;106479;1277;22666;-76
2023/12/10 08:41:55;;;;;;;17.60;9.50;;;;;;;-0.28;80.17;95258.33;106665;1277;24371;-76
2023/12/10 08:44:25;;;;;;;15.00;8.60;;;;;;;-0.26;80.15;95261.14;106462;1277;25308;-76
2023/12/10 08:46:53;;;;;;;19.20;9.60;;;;;;;-0.20;80.15;95258.46;106489;1277;22587;-76
2023/12/10 08:49:22;;;;;;;16.90;9.90;;;;;;;-0.21;79.82;95261.73;106543;1277;24380;-76
2023/12/10 08:51:51;;;;;;;18.90;9.70;;;;;;;-0.20;79.93;95264.69;106621;1277;22668;-76
2023/12/10 08:54:19;;;;;;;18.40;8.90;;;;;;;-0.19;80.23;95263.67;106412;1277;23121;-76
2023/12/10 08:56:50;;;;;;;21.20;10.40;;;;;;;-0.17;80.14;95258.70;106443;1277;22595;-76
2023/12/10 08:59:19;;;;;;;19.90;10.40;;;;;;;-0.18;79.79;95257.27;106488;1277;23899;-76
2023/12/10 09:01:47;;;;;;;19.60;9.40;;;;;;;-0.18;79.85;95255.55;106473;1277;22539;-76
2023/12/10 09:04:15;;;;;;;16.80;8.90;;;;;;;-0.17;79.85;95257.65;106432;1277;22523;-76
2023/12/10 09:06:44;;;;;;;18.00;10.00;;;;;;;-0.11;80.19;95254.98;106484;1277;22533;-76
2023/12/10 09:09:12;;;;;;;20.70;10.50;;;;;;;-0.02;80.22;95249.45;106450;1265;24547;-76
2023/12/10 09:11:41;;;;;;;26.40;13.10;;;;;;;0.03;79.80;95249.52;106519;1277;24881;-75
2023/12/10 09:14:11;;;;;;;22.80;11.30;;;;;;;0.03;79.29;95249.33;106544;1277;25419;-76
2023/12/10 09:16:39;;;;;;;23.30;12.60;;;;;;;0.01;78.96;95249.13;106460;1265;24522;-76
2023/12/10 09:19:07;;;;;;;19.10;10.20;;;;;;;0.00;79.40;95247.56;106454;1277;22561;-76
2023/12/10 09:21:36;;;;;;;18.70;10.50;;;;;;;0.00;79.31;95253.98;106484;1277;24340;-76
2023/12/10 09:24:04;;;;;;;18.70;10.00;;;;;;;0.02;79.31;95251.74;106596;1277;25368;-76
2023/12/10 09:26:34;;;;;;;23.00;12.20;;;;;;;-0.03;78.81;95251.14;106461;1277;22793;-76
2023/12/10 09:29:03;;;;;;;20.90;11.10;;;;;;;-0.10;78.76;95246.88;106431;1277;22618;-76
2023/12/10 09:31:31;;;;;;;22.20;11.70;;;;;;;-0.14;78.57;95249.77;106442;1277;25393;-76
2023/12/10 09:33:59;;;;;;;20.00;11.00;;;;;;;-0.07;78.69;95243.81;106497;1277;22808;-76
2023/12/10 09:36:28;;;;;;;27.20;11.50;;;;;;;-0.04;77.96;95240.07;106454;1277;23923;-76
2023/12/10 09:38:56;;;;;;;19.50;10.90;;;;;;;0.04;78.63;95237.95;106319;1277;24251;-76
2023/12/10 09:41:24;;;;;;;20.00;11.40;;;;;;;0.13;78.80;95236.86;106489;1277;23092;-76
2023/12/10 09:43:52;;;;;;;19.50;11.00;;;;;;;0.20;78.93;95239.91;106469;1277;25303;-76
2023/12/10 09:46:22;;;;;;;20.10;11.30;;;;;;;0.25;78.89;95244.48;106452;1277;22674;-76
2023/12/10 09:48:51;;;;;;;19.80;11.20;;;;;;;0.33;79.25;95241.48;106525;1277;24361;-76
2023/12/10 09:51:21;;;;;;;18.20;9.80;;;;;;;0.42;79.11;95235.23;106491;1277;24209;-76
2023/12/10 09:53:50;;;;;;;19.70;10.10;;;;;;;0.46;78.79;95234.25;106584;1277;22569;-76
2023/12/10 09:56:18;;;;;;;21.50;12.20;;;;;;;0.54;78.55;95232.10;106439;1277;22523;-76
2023/12/10 09:58:46;;;;;;;22.20;13.10;;;;;;;0.60;78.48;95230.64;106609;1277;24268;-76
2023/12/10 10:01:14;;;;;;;19.10;11.10;;;;;;;0.69;78.42;95233.88;106609;1277;25252;-76
2023/12/10 10:03:43;;;;;;;19.20;10.20;;;;;;;0.75;78.02;95233.61;106438;1277;24273;-76
2023/12/10 10:06:11;;;;;;;18.70;10.50;;;;;;;0.76;77.54;95232.41;106460;1277;22530;-76
2023/12/10 10:08:39;;;;;;;22.70;11.60;;;;;;;0.73;76.86;95230.28;106530;1277;22657;-76
2023/12/10 10:11:07;;;;;;;18.10;10.60;;;;;;;0.65;76.63;95229.84;106634;1277;22562;-76
2023/12/10 10:13:36;;;;;;;16.90;9.60;;;;;;;0.55;77.04;95233.50;106591;1254;25622;-76
2023/12/10 10:16:09;;;;;;;18.30;10.30;;;;;;;0.53;77.28;95229.51;106513;1277;24233;-76
2023/12/10 10:18:41;;;;;;;;;;;;;;;0.51;77.40;95230.52;106743;1277;24414;-76
2023/12/10 10:21:10;;;;;;;16.70;9.30;;;;;;;0.51;77.48;95231.20;106444;1277;22530;-76
2023/12/10 10:23:38;;;;;;;19.50;10.40;;;;;;;0.53;77.63;95233.66;106456;1277;25525;-76
2023/12/10 10:26:07;;;;;;;20.90;11.60;;;;;;;0.54;77.51;95237.48;106457;1277;26649;-77
2023/12/10 10:28:36;;;;;;;17.00;9.90;;;;;;;0.52;77.23;95234.67;106537;1277;22541;-74
2023/12/10 10:31:05;;;;;;;16.70;9.60;;;;;;;0.49;77.27;95233.77;106744;1277;22583;-74
2023/12/10 10:33:34;;;;;;;19.10;10.60;;;;;;;0.48;77.62;95235.66;106431;1277;25078;-74
2023/12/10 10:36:04;;;;;;;18.30;10.70;;;;;;;0.49;77.80;95230.65;106470;1277;25610;-75
2023/12/10 10:38:33;;;;;;;17.80;10.20;;;;;;;0.50;77.57;95229.12;106498;1277;24229;-74
2023/12/10 10:41:01;;;;;;;17.40;10.00;;;;;;;0.50;77.32;95229.81;106480;1277;22527;-74
2023/12/10 10:43:29;;;;;;;18.20;10.20;;;;;;;0.48;77.11;95227.70;106506;1273;23273;-74
2023/12/10 10:45:58;;;;;;;19.00;10.50;;;;;;;0.45;77.14;95229.90;106441;1261;24284;-74
2023/12/10 10:48:28;;;;;;;18.60;10.70;;;;;;;0.46;77.36;95230.61;106502;1277;23941;-75
2023/12/10 10:50:57;;;;;;;19.10;10.50;;;;;;;0.50;77.57;95230.84;106528;1277;22517;-74
2023/12/10 10:53:26;;;;;;;18.00;10.10;;;;;;;0.56;77.58;95233.52;106484;1277;24284;-75
2023/12/10 10:55:55;;;;;;;19.20;10.30;;;;;;;0.62;77.45;95237.23;106502;1277;24270;-74
2023/12/10 10:58:28;;;;;;;16.80;9.80;;;;;;;0.63;77.32;95232.76;106502;1277;22553;-74
2023/12/10 11:00:58;;;;;;;19.40;10.30;;;;;;;0.68;77.56;95232.84;106539;1277;22591;-74
2023/12/10 11:03:27;;;;;;;17.20;8.90;;;;;;;0.70;77.34;95230.61;106482;1277;22988;-74
2023/12/10 11:06:01;;;;;;;18.60;10.70;;;;;;;0.70;77.07;95226.96;106584;1277;22537;-75
2023/12/10 11:08:33;;;;;;;21.20;11.20;;;;;;;0.68;77.06;95228.33;106468;1277;22542;-74
2023/12/10 11:11:01;;;;;;;17.50;9.00;;;;;;;0.68;77.02;95227.29;106533;1277;22547;-74
2023/12/10 11:13:50;;;;;;;19.00;9.90;;;;;;;0.67;77.38;95231.59;106444;1277;22580;-75
2023/12/10 11:16:18;;;;;;;19.40;10.30;;;;;;;0.65;77.06;95230.02;106472;1277;24361;-74
2023/12/10 11:18:56;;;;;;;17.90;9.90;;;;;;;0.60;76.61;95231.33;106475;1277;22542;-74
2023/12/10 11:21:25;;;;;;;19.40;10.30;;;;;;;0.62;77.06;95236.38;106567;1277;25260;-75